Time;durP1;ratioP1;P1;durP2;ratioP2;P2;SDS_P1;SDS_P2;PMS_P1;PMS_P2;Temp;Humidity;BMP_temperature;BMP_pressure;BME280_temperature;BME280_humidity;BME280_pressure;Samples;Min_cycle;Max_cycle;Signal;HPM_P1;HPM_P2
2023/02/09 00:01:28;;;;;;;;;;;-4.00;1.00;;;;;;5069631;28;19924;-84
2023/02/09 00:03:54;;;;;;;;;;;-4.10;1.00;;;;;;5076862;28;19913;-85
2023/02/09 00:06:21;;;;;;;;;;;-4.10;1.00;;;;;;5080894;28;19943;-83
2023/02/09 00:08:47;;;;;;;;;;;-4.00;1.00;;;;;;5090480;28;19927;-86
2023/02/09 00:11:20;;;;;;;;;;;-4.20;1.00;;;;;;5077485;28;19909;-85
2023/02/09 00:13:46;;;;;;;;;;;-4.30;1.00;;;;;;5081790;28;20281;-85
2023/02/09 00:16:12;;;;;;;;;;;-4.40;1.00;;;;;;5061283;28;19955;-85
2023/02/09 00:18:38;;;;;;;;;;;-4.40;1.00;;;;;;5064828;28;20358;-85
2023/02/09 00:21:06;;;;;;;;;;;-4.40;1.00;;;;;;5053904;28;19920;-85
2023/02/09 00:23:33;;;;;;;;;;;-4.50;1.00;;;;;;5053644;28;19912;-85
2023/02/09 00:26:00;;;;;;;;;;;-4.60;1.00;;;;;;5068591;28;20388;-80
2023/02/09 00:28:26;;;;;;;;;;;-4.60;1.00;;;;;;5060106;28;20358;-85
2023/02/09 00:30:52;;;;;;;;;;;-4.60;1.00;;;;;;5059658;28;19931;-85
2023/02/09 00:33:18;;;;;;;;;;;-4.60;1.00;;;;;;5054529;28;19909;-86
2023/02/09 00:35:44;;;;;;;;;;;-4.60;1.00;;;;;;5051782;28;19959;-85
2023/02/09 00:38:13;;;;;;;;;;;-4.70;1.00;;;;;;5058847;28;19917;-85
2023/02/09 00:40:40;;;;;;;;;;;-4.70;1.00;;;;;;5065516;28;19988;-84
2023/02/09 00:43:06;;;;;;;;;;;-4.80;1.00;;;;;;5061236;28;19917;-84
2023/02/09 00:45:32;;;;;;;;;;;-4.70;1.00;;;;;;5064612;28;20262;-85
2023/02/09 00:47:58;;;;;;;;;;;-4.80;1.00;;;;;;5051623;28;19920;-79
2023/02/09 00:50:24;;;;;;;;;;;-4.90;1.00;;;;;;5058457;28;20381;-84
2023/02/09 00:52:50;;;;;;;;;;;-4.90;1.00;;;;;;5065935;28;19919;-85
2023/02/09 00:55:16;;;;;;;;;;;-4.90;1.00;;;;;;5051543;28;19920;-85
2023/02/09 00:57:42;;;;;;;;;;;-5.00;1.00;;;;;;5044785;28;19979;-85
2023/02/09 01:00:09;;;;;;;;;;;-5.10;1.00;;;;;;5071292;28;20014;-83
2023/02/09 01:02:36;;;;;;;;;;;-5.10;1.00;;;;;;5073192;28;19944;-85
2023/02/09 01:05:02;;;;;;;;;;;-5.20;1.00;;;;;;5080183;28;19935;-80
2023/02/09 01:07:28;;;;;;;;;;;-5.20;1.00;;;;;;5047869;28;19915;-84
2023/02/09 01:09:54;;;;;;;;;;;-5.20;1.00;;;;;;5056221;28;20436;-83
2023/02/09 01:12:20;;;;;;;;;;;-5.20;1.00;;;;;;5056396;28;19916;-82
2023/02/09 01:14:46;;;;;;;;;;;-5.20;1.00;;;;;;5060341;28;19913;-83
2023/02/09 01:17:12;;;;;;;;;;;-5.30;1.00;;;;;;5062034;28;20003;-83
2023/02/09 01:19:38;;;;;;;;;;;-5.30;1.00;;;;;;5067302;28;19913;-84
2023/02/09 01:22:04;;;;;;;;;;;-5.40;1.00;;;;;;5067675;28;20016;-83
2023/02/09 01:24:29;;;;;;;;;;;-5.40;1.00;;;;;;5044949;28;19913;-81
2023/02/09 01:26:55;;;;;;;;;;;-5.40;1.00;;;;;;5043823;28;20627;-78
2023/02/09 01:29:22;;;;;;;;;;;-5.50;1.00;;;;;;5050828;28;20144;-84
2023/02/09 01:31:48;;;;;;;;;;;-5.40;1.00;;;;;;5056124;28;19922;-80
2023/02/09 01:34:16;;;;;;;;;;;-5.40;1.00;;;;;;5053640;28;19925;-83
2023/02/09 01:36:43;;;;;;;;;;;-5.50;1.00;;;;;;5052354;28;20265;-83
2023/02/09 01:39:10;;;;;;;;;;;-5.50;1.00;;;;;;5057946;28;20317;-84
2023/02/09 01:41:36;;;;;;;;;;;-5.50;1.00;;;;;;5077475;28;19927;-83
2023/02/09 01:44:25;;;;;;;;;;;-5.50;1.00;;;;;;5055610;28;19908;-79
2023/02/09 01:46:51;;;;;;;;;;;-5.50;1.00;;;;;;5048244;28;19913;-82
2023/02/09 01:49:19;;;;;;;;;;;-5.60;1.00;;;;;;5072950;28;19984;-84
2023/02/09 01:51:46;;;;;;;;;;;-5.70;1.00;;;;;;5061655;28;19917;-83
2023/02/09 01:54:15;;;;;;;;;;;-5.70;1.00;;;;;;5059982;28;19953;-85
2023/02/09 01:56:43;;;;;;;;;;;-5.70;1.00;;;;;;5075315;28;20373;-83
2023/02/09 01:59:12;;;;;;;;;;;-5.60;1.00;;;;;;5076155;28;19923;-83
2023/02/09 02:01:39;;;;;;;;;;;-5.60;1.00;;;;;;5072925;28;19924;-82
2023/02/09 02:04:05;;;;;;;;;;;-5.70;1.00;;;;;;5050532;28;20384;-81
2023/02/09 02:06:31;;;;;;;;;;;-5.80;1.00;;;;;;5052542;28;19919;-84
2023/02/09 02:08:59;;;;;;;;;;;-5.80;1.00;;;;;;5053843;28;19913;-81
2023/02/09 02:11:28;;;;;;;;;;;-5.80;1.00;;;;;;5061392;28;19912;-82
2023/02/09 02:13:55;;;;;;;;;;;-5.70;1.00;;;;;;5051225;28;19988;-83
2023/02/09 02:16:33;;;;;;;;;;;-5.80;1.00;;;;;;5062886;28;19908;-84
2023/02/09 02:19:18;;;;;;;;;;;-5.90;1.00;;;;;;5046727;28;20373;-79
2023/02/09 02:22:03;;;;;;;;;;;-5.90;1.00;;;;;;5050772;28;19928;-82
2023/02/09 02:24:34;;;;;;;;;;;-5.90;1.00;;;;;;5064184;28;19913;-82
2023/02/09 02:27:05;;;;;;;;;;;-5.90;1.00;;;;;;5066978;28;19916;-80
2023/02/09 02:29:50;;;;;;;;;;;-5.80;1.00;;;;;;5061720;28;19975;-83
2023/02/09 02:32:34;;;;;;;;;;;-5.80;1.00;;;;;;5060593;28;20346;-82
2023/02/09 02:35:07;;;;;;;;;;;-5.80;1.00;;;;;;5050202;28;19916;-79
2023/02/09 02:37:51;;;;;;;;;;;-5.80;1.00;;;;;;5054517;28;20281;-80
2023/02/09 02:40:24;;;;;;;;;;;-5.80;1.00;;;;;;5066372;28;19919;-82
2023/02/09 02:43:11;;;;;;;;;;;-5.80;1.00;;;;;;5057958;28;19928;-83
2023/02/09 02:45:37;;;;;;;;;;;-5.90;1.00;;;;;;5059935;28;19919;-82
2023/02/09 02:48:22;;;;;;;;;;;-6.00;1.00;;;;;;5070553;28;19936;-80
2023/02/09 02:50:52;;;;;;;;;;;-6.00;1.00;;;;;;5056495;28;19913;-83
2023/02/09 02:53:19;;;;;;;;;;;-6.00;1.00;;;;;;5064282;28;19913;-82
2023/02/09 02:55:45;;;;;;;;;;;-6.00;1.00;;;;;;5056376;28;19912;-82
2023/02/09 02:58:13;;;;;;;;;;;-5.90;1.00;;;;;;5051286;28;20250;-82
2023/02/09 03:00:45;;;;;;;;;;;-6.00;1.00;;;;;;5077845;28;19912;-82
2023/02/09 03:03:13;;;;;;;;;;;-5.90;1.00;;;;;;5052531;28;19921;-82
2023/02/09 03:05:40;;;;;;;;;;;-6.00;1.00;;;;;;5060226;28;19917;-82
2023/02/09 03:08:06;;;;;;;;;;;-6.00;1.00;;;;;;5050883;28;19919;-80
2023/02/09 03:10:34;;;;;;;;;;;-6.10;1.00;;;;;;5056033;28;20292;-82
2023/02/09 03:13:08;;;;;;;;;;;-6.20;1.00;;;;;;5053031;28;19917;-82
2023/02/09 03:19:24;;;;;;;;;;;-6.20;1.00;;;;;;5068625;28;19940;-82
2023/02/09 03:21:50;;;;;;;;;;;-6.20;1.00;;;;;;5058223;28;19931;-81
2023/02/09 03:24:16;;;;;;;;;;;-6.30;1.00;;;;;;5048856;28;20374;-82
2023/02/09 03:26:46;;;;;;;;;;;-6.30;1.00;;;;;;5060919;28;20354;-82
2023/02/09 03:29:12;;;;;;;;;;;-6.30;1.00;;;;;;5053510;28;19920;-82
2023/02/09 03:31:38;;;;;;;;;;;-6.30;1.00;;;;;;5050199;28;19917;-81
2023/02/09 03:34:05;;;;;;;;;;;-6.20;1.00;;;;;;5056552;28;19971;-79
2023/02/09 03:36:32;;;;;;;;;;;-6.30;1.00;;;;;;5061437;28;19923;-83
2023/02/09 03:38:58;;;;;;;;;;;-6.40;1.00;;;;;;5060070;28;20396;-81
2023/02/09 03:41:24;;;;;;;;;;;-6.40;1.00;;;;;;5074033;28;20534;-83
2023/02/09 03:46:35;;;;;;;;;;;-6.50;1.00;;;;;;5057368;28;19913;-83
2023/02/09 03:49:01;;;;;;;;;;;-6.40;1.00;;;;;;5080993;28;19913;-82
2023/02/09 03:51:27;;;;;;;;;;;-6.50;1.00;;;;;;5061891;28;20405;-83
2023/02/09 03:53:53;;;;;;;;;;;-6.50;1.00;;;;;;5057222;28;19955;-83
2023/02/09 03:56:23;;;;;;;;;;;-6.50;1.00;;;;;;5064748;28;19908;-83
2023/02/09 03:58:49;;;;;;;;;;;-6.50;1.00;;;;;;5066293;28;20301;-84
2023/02/09 04:01:15;;;;;;;;;;;-6.50;1.00;;;;;;5074561;28;19925;-83
2023/02/09 04:03:41;;;;;;;;;;;-6.60;1.00;;;;;;5052451;28;20003;-83
2023/02/09 04:06:08;;;;;;;;;;;-6.60;1.00;;;;;;5044369;28;19923;-81
2023/02/09 04:08:35;;;;;;;;;;;-6.50;1.00;;;;;;5061729;28;19920;-83
2023/02/09 04:11:01;;;;;;;;;;;-6.60;1.00;;;;;;5055165;28;19920;-82
2023/02/09 04:13:27;;;;;;;;;;;-6.60;1.00;;;;;;5047276;28;19909;-83
2023/02/09 04:15:53;;;;;;;;;;;-6.60;1.00;;;;;;5045575;28;19914;-82
2023/02/09 04:18:19;;;;;;;;;;;-6.60;1.00;;;;;;5046045;28;19920;-83
2023/02/09 04:20:45;;;;;;;;;;;-6.70;1.00;;;;;;5041196;28;19948;-83
2023/02/09 04:23:11;;;;;;;;;;;-6.70;1.00;;;;;;5051314;28;20012;-82
2023/02/09 04:25:37;;;;;;;;;;;-6.70;1.00;;;;;;5042923;28;19920;-80
2023/02/09 04:28:03;;;;;;;;;;;-6.70;1.00;;;;;;5045665;28;19913;-82
2023/02/09 04:30:29;;;;;;;;;;;-6.80;1.00;;;;;;5052952;28;19917;-81
2023/02/09 04:32:55;;;;;;;;;;;-6.80;1.00;;;;;;5038683;28;19920;-82
2023/02/09 04:35:21;;;;;;;;;;;-6.80;1.00;;;;;;5048239;28;20003;-82
2023/02/09 04:37:47;;;;;;;;;;;-6.80;1.00;;;;;;5044899;28;19971;-82
2023/02/09 04:40:13;;;;;;;;;;;-6.90;1.00;;;;;;5039260;28;19984;-82
2023/02/09 04:42:39;;;;;;;;;;;-7.00;1.00;;;;;;5047830;28;19917;-82
2023/02/09 04:45:05;;;;;;;;;;;-7.10;1.00;;;;;;5044742;28;19967;-80
2023/02/09 04:47:31;;;;;;;;;;;-7.10;1.00;;;;;;5043528;28;19908;-83
2023/02/09 04:49:57;;;;;;;;;;;-7.10;1.00;;;;;;5054964;28;20420;-82
2023/02/09 04:52:23;;;;;;;;;;;-7.20;1.00;;;;;;5035531;28;19909;-80
2023/02/09 04:54:49;;;;;;;;;;;-7.00;1.00;;;;;;5041548;28;19913;-82
2023/02/09 05:00:00;;;;;;;;;;;-7.00;1.00;;;;;;5037661;28;19920;-84
2023/02/09 05:02:26;;;;;;;;;;;-7.10;1.00;;;;;;5048930;28;20020;-82
2023/02/09 05:04:52;;;;;;;;;;;-7.00;1.00;;;;;;5049780;28;20390;-84
2023/02/09 05:07:17;;;;;;;;;;;-7.00;1.00;;;;;;5044410;28;19916;-88
2023/02/09 05:09:43;;;;;;;;;;;-6.90;1.00;;;;;;5054043;28;19920;-81
2023/02/09 05:12:09;;;;;;;;;;;-6.90;1.00;;;;;;5041395;28;20297;-80
2023/02/09 05:14:36;;;;;;;;;;;-6.90;1.00;;;;;;5046198;28;19920;-81
2023/02/09 05:17:01;;;;;;;;;;;-7.00;1.00;;;;;;5049511;28;19909;-80
2023/02/09 05:19:27;;;;;;;;;;;-7.10;1.00;;;;;;5042458;28;19908;-82
2023/02/09 05:21:53;;;;;;;;;;;-7.00;1.00;;;;;;5049347;28;19913;-80
2023/02/09 05:24:19;;;;;;;;;;;-7.00;1.00;;;;;;5043537;28;19917;-76
2023/02/09 05:26:45;;;;;;;;;;;-7.00;1.00;;;;;;5055218;28;20362;-83
2023/02/09 05:29:11;;;;;;;;;;;-7.00;1.00;;;;;;5049433;28;19939;-83
2023/02/09 05:31:37;;;;;;;;;;;-6.90;1.00;;;;;;5055312;28;20377;-82
2023/02/09 05:34:03;;;;;;;;;;;-7.00;1.00;;;;;;5041208;28;19917;-83
2023/02/09 05:36:29;;;;;;;;;;;-7.10;1.00;;;;;;5042465;28;19920;-83
2023/02/09 05:38:55;;;;;;;;;;;-7.00;1.00;;;;;;5041935;28;20007;-83
2023/02/09 05:44:05;;;;;;;;;;;-7.10;1.00;;;;;;5041290;28;19920;-80
2023/02/09 05:46:31;;;;;;;;;;;-7.20;1.00;;;;;;5041333;28;20358;-83
2023/02/09 05:48:57;;;;;;;;;;;-7.20;1.00;;;;;;5059184;28;19919;-84
2023/02/09 05:51:23;;;;;;;;;;;-7.00;1.00;;;;;;5045534;28;19921;-84
2023/02/09 05:53:51;;;;;;;;;;;-7.10;1.00;;;;;;5041822;28;19921;-83
2023/02/09 05:56:17;;;;;;;;;;;-7.20;1.00;;;;;;5043101;28;19917;-81
2023/02/09 05:58:43;;;;;;;;;;;-7.30;1.00;;;;;;5041341;28;19913;-83
2023/02/09 06:01:09;;;;;;;;;;;-7.30;1.00;;;;;;5051525;28;19979;-79
2023/02/09 06:03:35;;;;;;;;;;;-7.30;1.00;;;;;;5034898;28;19925;-78
2023/02/09 06:06:01;;;;;;;;;;;-7.30;1.00;;;;;;5048197;28;20012;-79
2023/02/09 06:08:27;;;;;;;;;;;-7.30;1.00;;;;;;5048090;28;19913;-76
2023/02/09 06:10:53;;;;;;;;;;;-7.40;1.00;;;;;;5039786;28;19909;-78
2023/02/09 06:13:19;;;;;;;;;;;-7.50;1.00;;;;;;5042981;28;19913;-79
2023/02/09 06:15:45;;;;;;;;;;;-7.50;1.00;;;;;;5052911;28;20043;-75
2023/02/09 06:18:11;;;;;;;;;;;-7.40;1.00;;;;;;5040979;28;19927;-75
2023/02/09 06:20:37;;;;;;;;;;;-7.40;1.00;;;;;;5041252;28;19946;-75
2023/02/09 06:23:03;;;;;;;;;;;-7.40;1.00;;;;;;5053032;28;20023;-75
2023/02/09 06:25:29;;;;;;;;;;;-7.40;1.00;;;;;;5039640;28;19924;-75
2023/02/09 06:27:55;;;;;;;;;;;-7.40;1.00;;;;;;5047841;28;19995;-75
2023/02/09 06:30:21;;;;;;;;;;;-7.50;1.00;;;;;;5043794;28;19927;-75
2023/02/09 06:32:47;;;;;;;;;;;-7.40;1.00;;;;;;5035218;28;19943;-75
2023/02/09 06:35:13;;;;;;;;;;;-7.50;1.00;;;;;;5041677;28;20571;-75
2023/02/09 06:37:38;;;;;;;;;;;-7.50;1.00;;;;;;5046428;28;19909;-74
2023/02/09 06:40:05;;;;;;;;;;;-7.40;1.00;;;;;;5041540;28;19943;-75
2023/02/09 06:42:42;;;;;;;;;;;-7.40;1.00;;;;;;5049268;28;19921;-75
2023/02/09 06:45:12;;;;;;;;;;;-7.50;1.00;;;;;;5048919;28;19920;-77
2023/02/09 06:47:42;;;;;;;;;;;-7.40;1.00;;;;;;5042509;28;20370;-76
2023/02/09 06:50:09;;;;;;;;;;;-7.40;1.00;;;;;;5045300;28;19920;-76
2023/02/09 06:52:35;;;;;;;;;;;-7.40;1.00;;;;;;5063351;28;19917;-76
2023/02/09 06:55:01;;;;;;;;;;;-7.40;1.00;;;;;;5069599;28;20011;-75
2023/02/09 06:57:28;;;;;;;;;;;-7.30;1.00;;;;;;5059676;28;19913;-76
2023/02/09 06:59:54;;;;;;;;;;;-7.30;1.00;;;;;;5065067;28;19908;-76
2023/02/09 07:02:20;;;;;;;;;;;-7.40;1.00;;;;;;5085198;28;20381;-76
2023/02/09 07:04:46;;;;;;;;;;;-7.30;1.00;;;;;;5062067;28;19913;-76
2023/02/09 07:07:12;;;;;;;;;;;-7.30;1.00;;;;;;5066160;28;19913;-76
2023/02/09 07:09:38;;;;;;;;;;;-7.30;1.00;;;;;;5064222;28;19944;-74
2023/02/09 07:12:04;;;;;;;;;;;-7.20;1.00;;;;;;5064592;28;19913;-75
2023/02/09 07:14:30;;;;;;;;;;;-7.30;1.00;;;;;;5056100;28;19920;-75
2023/02/09 07:16:56;;;;;;;;;;;-7.30;1.00;;;;;;5062278;28;19916;-76
2023/02/09 07:19:22;;;;;;;;;;;-7.30;1.00;;;;;;5092285;28;19913;-76
2023/02/09 07:21:48;;;;;;;;;;;-7.20;1.00;;;;;;5064545;28;20388;-74
2023/02/09 07:24:14;;;;;;;;;;;-7.10;1.00;;;;;;5070678;28;20365;-74
2023/02/09 07:26:40;;;;;;;;;;;-7.10;1.00;;;;;;5067528;28;20000;-74
2023/02/09 07:29:06;;;;;;;;;;;-7.10;1.00;;;;;;5064689;28;19912;-74
2023/02/09 07:31:32;;;;;;;;;;;-7.10;1.00;;;;;;5065568;28;20269;-74
2023/02/09 07:33:58;;;;;;;;;;;-7.00;1.00;;;;;;5069696;28;19920;-74
2023/02/09 07:36:24;;;;;;;;;;;-6.90;1.00;;;;;;5061596;28;19912;-74
2023/02/09 07:38:50;;;;;;;;;;;-6.80;1.00;;;;;;5065071;28;20373;-76
2023/02/09 07:41:18;;;;;;;;;;;-6.70;1.00;;;;;;5062004;28;19913;-76
2023/02/09 07:43:44;;;;;;;;;;;-6.60;1.00;;;;;;5061804;28;19929;-74
2023/02/09 07:46:12;;;;;;;;;;;-6.50;1.00;;;;;;5063007;28;19909;-74
2023/02/09 07:48:38;;;;;;;;;;;-6.30;1.00;;;;;;5061811;28;19913;-74
2023/02/09 07:51:04;;;;;;;;;;;-6.20;1.00;;;;;;5064787;28;19919;-74
2023/02/09 07:53:30;;;;;;;;;;;-6.00;1.00;;;;;;5069361;28;19909;-74
2023/02/09 07:55:56;;;;;;;;;;;-5.80;1.00;;;;;;5063884;28;19916;-74
2023/02/09 07:58:22;;;;;;;;;;;-5.40;1.00;;;;;;5072755;28;20289;-75
2023/02/09 08:00:49;;;;;;;;;;;-5.20;1.00;;;;;;5057955;28;19959;-75
2023/02/09 08:03:17;;;;;;;;;;;-5.00;1.00;;;;;;5059463;28;19921;-76
2023/02/09 08:05:55;;;;;;;;;;;-4.80;1.00;;;;;;5063855;28;19912;-79
2023/02/09 08:08:21;;;;;;;;;;;-4.70;1.00;;;;;;5066418;28;19913;-79
2023/02/09 08:10:47;;;;;;;;;;;-4.40;1.00;;;;;;5072071;28;19920;-78
2023/02/09 08:13:14;;;;;;;;;;;-4.30;1.00;;;;;;5071499;28;20247;-79
2023/02/09 08:15:41;;;;;;;;;;;-4.20;1.00;;;;;;5077031;28;19912;-79
2023/02/09 08:18:12;;;;;;;;;;;-4.00;1.00;;;;;;5074068;28;20342;-79
2023/02/09 08:20:39;;;;;;;;;;;-3.70;1.00;;;;;;5067176;28;19919;-79
2023/02/09 08:23:08;;;;;;;;;;;-3.50;1.00;;;;;;5069190;28;19921;-78
2023/02/09 08:25:35;;;;;;;;;;;-3.30;1.00;;;;;;5074411;28;19913;-79
2023/02/09 08:28:01;;;;;;;;;;;-3.00;1.00;;;;;;5060692;28;20317;-79
2023/02/09 08:30:28;;;;;;;;;;;-2.60;1.00;;;;;;5099029;27;19920;-79
2023/02/09 08:32:54;;;;;;;;;;;-2.50;1.00;;;;;;5059288;28;19913;-77
2023/02/09 08:35:19;;;;;;;;;;;-2.40;1.00;;;;;;5062545;28;19919;-78
2023/02/09 08:37:45;;;;;;;;;;;-2.10;1.00;;;;;;5075502;28;19996;-77
2023/02/09 08:40:13;;;;;;;;;;;-2.00;1.00;;;;;;5075753;28;20031;-79
2023/02/09 08:42:39;;;;;;;;;;;-1.70;1.00;;;;;;5081025;28;19920;-78
2023/02/09 08:45:05;;;;;;;;;;;-1.50;99.90;;;;;;5066387;28;19919;-78
2023/02/09 08:47:31;;;;;;;;;;;-1.50;99.90;;;;;;5062214;28;19919;-77
2023/02/09 08:49:58;;;;;;;;;;;-1.60;99.90;;;;;;5078528;28;19913;-78
2023/02/09 08:52:24;;;;;;;;;;;-1.60;99.90;;;;;;5080592;28;20302;-78
2023/02/09 08:54:50;;;;;;;;;;;-1.40;99.90;;;;;;5057461;28;19912;-78
2023/02/09 08:57:16;;;;;;;;;;;-1.10;99.90;;;;;;5091913;27;19927;-77
2023/02/09 08:59:42;;;;;;;;;;;-1.10;99.90;;;;;;5064274;28;19924;-76
2023/02/09 09:02:08;;;;;;;;;;;-1.20;99.90;;;;;;5052401;28;20008;-77
2023/02/09 09:04:34;;;;;;;;;;;-1.10;99.90;;;;;;5059118;28;19921;-76
2023/02/09 09:07:00;;;;;;;;;;;-1.10;99.90;;;;;;5072252;28;19912;-76
2023/02/09 09:09:26;;;;;;;;;;;-1.00;99.90;;;;;;5069757;28;19913;-76
2023/02/09 09:11:52;;;;;;;;;;;-1.00;99.90;;;;;;5066035;28;20251;-76
2023/02/09 09:14:18;;;;;;;;;;;-0.90;99.90;;;;;;5075472;28;19967;-76
2023/02/09 09:16:44;;;;;;;;;;;-0.90;99.90;;;;;;5047646;28;20361;-76
2023/02/09 09:19:10;;;;;;;;;;;-0.80;99.90;;;;;;5065501;28;19970;-76
2023/02/09 09:21:36;;;;;;;;;;;-0.90;99.90;;;;;;5065569;28;19919;-76
2023/02/09 09:24:02;;;;;;;;;;;-0.80;99.90;;;;;;5064813;28;20004;-76
2023/02/09 09:26:28;;;;;;;;;;;-0.70;99.90;;;;;;5063937;28;19913;-76
2023/02/09 09:28:54;;;;;;;;;;;-0.70;99.90;;;;;;5057437;28;20040;-74
2023/02/09 09:31:20;;;;;;;;;;;-0.50;99.90;;;;;;5065335;28;19913;-74
2023/02/09 09:33:46;;;;;;;;;;;-0.40;99.90;;;;;;5058179;28;20019;-73
2023/02/09 09:36:13;;;;;;;;;;;-0.40;99.90;;;;;;5062458;28;19927;-76
2023/02/09 09:38:39;;;;;;;;;;;-0.30;99.90;;;;;;5061184;28;19919;-73
2023/02/09 09:41:19;;;;;;;;;;;-0.20;99.90;;;;;;5063936;28;19916;-73
2023/02/09 09:43:46;;;;;;;;;;;-0.10;99.90;;;;;;5062455;28;19921;-73
2023/02/09 09:46:17;;;;;;;;;;;-0.10;99.90;;;;;;5068336;28;19947;-73
2023/02/09 09:48:45;;;;;;;;;;;-0.10;99.90;;;;;;5068152;28;19913;-72
2023/02/09 09:51:15;;;;;;;;;;;0.00;99.90;;;;;;5060864;28;19931;-72
2023/02/09 09:53:42;;;;;;;;;;;0.00;99.90;;;;;;5054634;28;19921;-73
2023/02/09 09:56:08;;;;;;;;;;;0.10;99.90;;;;;;5062988;28;19908;-73
2023/02/09 09:58:38;;;;;;;;;;;0.20;99.90;;;;;;5057812;28;19912;-73
2023/02/09 10:01:05;;;;;;;;;;;0.30;99.90;;;;;;5061175;28;19943;-73
2023/02/09 10:03:31;;;;;;;;;;;0.20;99.90;;;;;;5058385;28;19927;-73
2023/02/09 10:06:07;;;;;;;;;;;0.30;99.90;;;;;;5055620;28;19917;-74
2023/02/09 10:08:35;;;;;;;;;;;0.50;99.90;;;;;;5093913;27;20230;-74
2023/02/09 10:11:01;;;;;;;;;;;0.60;99.90;;;;;;5062039;28;19916;-73
2023/02/09 10:13:35;;;;;;;;;;;0.70;99.90;;;;;;5062537;28;19959;-73
2023/02/09 10:16:02;;;;;;;;;;;0.70;99.90;;;;;;5064147;28;20284;-73
2023/02/09 10:18:29;;;;;;;;;;;0.90;99.90;;;;;;5062217;28;19919;-73
2023/02/09 10:21:00;;;;;;;;;;;1.00;99.90;;;;;;5061704;28;19935;-73
2023/02/09 10:23:27;;;;;;;;;;;1.20;99.90;;;;;;5059225;28;19928;-73
2023/02/09 10:25:56;;;;;;;;;;;1.20;99.90;;;;;;5064025;28;19920;-73
2023/02/09 10:28:27;;;;;;;;;;;1.30;99.90;;;;;;5058580;28;19913;-73
2023/02/09 10:30:55;;;;;;;;;;;1.30;99.90;;;;;;5062408;28;19917;-77
2023/02/09 10:33:21;;;;;;;;;;;1.30;99.90;;;;;;5059392;28;19916;-77
2023/02/09 10:35:55;;;;;;;;;;;1.50;99.90;;;;;;5056672;28;19919;-76
2023/02/09 10:38:23;;;;;;;;;;;1.40;99.90;;;;;;5075258;28;20362;-76
2023/02/09 10:40:49;;;;;;;;;;;1.40;99.90;;;;;;5064525;28;19919;-76
2023/02/09 10:43:24;;;;;;;;;;;1.40;99.90;;;;;;5075551;28;19917;-76
2023/02/09 10:45:52;;;;;;;;;;;1.40;99.90;;;;;;5064268;28;20286;-76
2023/02/09 10:48:19;;;;;;;;;;;1.50;99.90;;;;;;5087576;27;19909;-73
2023/02/09 10:50:53;;;;;;;;;;;1.40;99.90;;;;;;5069078;28;19920;-72
2023/02/09 10:53:21;;;;;;;;;;;1.50;99.90;;;;;;5055816;28;19943;-73
2023/02/09 10:55:47;;;;;;;;;;;1.60;99.90;;;;;;5076371;28;19909;-73
2023/02/09 10:58:19;;;;;;;;;;;1.70;99.90;;;;;;5061196;28;20261;-73
2023/02/09 11:00:54;;;;;;;;;;;1.80;99.90;;;;;;5060836;28;19925;-73
2023/02/09 11:03:24;;;;;;;;;;;1.80;99.90;;;;;;5061290;28;19921;-73
2023/02/09 11:05:57;;;;;;;;;;;1.90;99.90;;;;;;5069650;28;19916;-72
2023/02/09 11:08:25;;;;;;;;;;;2.00;99.90;;;;;;5056927;28;19912;-73
2023/02/09 11:11:21;;;;;;;;;;;2.00;99.90;;;;;;5059267;28;19920;-72
2023/02/09 11:13:47;;;;;;;;;;;2.00;99.90;;;;;;5056382;28;19912;-74
2023/02/09 11:16:31;;;;;;;;;;;2.20;99.90;;;;;;5064347;28;20366;-73
2023/02/09 11:19:06;;;;;;;;;;;2.40;99.90;;;;;;5064748;28;19912;-74
2023/02/09 11:21:38;;;;;;;;;;;2.40;99.90;;;;;;5066813;28;19928;-75
2023/02/09 11:24:15;;;;;;;;;;;2.30;99.90;;;;;;5061769;28;19928;-74
2023/02/09 11:26:53;;;;;;;;;;;2.40;99.90;;;;;;5064340;28;19912;-75
2023/02/09 11:29:35;;;;;;;;;;;2.50;99.90;;;;;;5064013;28;20322;-75
2023/02/09 11:32:01;;;;;;;;;;;2.60;99.90;;;;;;5059290;28;20285;-74
2023/02/09 11:34:32;;;;;;;;;;;2.50;99.90;;;;;;5064948;28;19959;-72
2023/02/09 11:37:12;;;;;;;;;;;2.60;99.90;;;;;;5081591;28;19916;-73
2023/02/09 11:39:57;;;;;;;;;;;2.80;99.90;;;;;;5073166;28;20256;-73
2023/02/09 11:42:43;;;;;;;;;;;2.90;99.90;;;;;;5081910;28;20285;-75
2023/02/09 11:45:25;;;;;;;;;;;3.00;99.90;;;;;;5090031;28;19920;-72
2023/02/09 11:48:10;;;;;;;;;;;3.00;99.90;;;;;;5092849;28;19916;-73
2023/02/09 11:50:50;;;;;;;;;;;3.00;99.90;;;;;;5088947;28;20070;-73
2023/02/09 11:53:27;;;;;;;;;;;3.10;99.90;;;;;;5089554;28;19912;-72
2023/02/09 11:55:56;;;;;;;;;;;3.10;99.90;;;;;;5085236;28;19919;-73
2023/02/09 11:58:31;;;;;;;;;;;3.10;99.90;;;;;;5079666;28;20356;-72
2023/02/09 12:01:01;;;;;;;;;;;3.00;99.90;;;;;;5078842;28;19924;-75
2023/02/09 12:03:27;;;;;;;;;;;3.10;99.90;;;;;;5076550;28;19943;-75
2023/02/09 12:05:54;;;;;;;;;;;3.00;99.90;;;;;;5081127;28;19912;-75
2023/02/09 12:08:36;;;;;;;;;;;3.10;99.90;;;;;;5108449;27;19990;-77
2023/02/09 12:11:20;;;;;;;;;;;3.10;99.90;;;;;;5083201;28;20255;-76
2023/02/09 12:13:47;;;;;;;;;;;3.00;99.90;;;;;;5086210;28;19913;-76
2023/02/09 12:16:18;;;;;;;;;;;3.10;99.90;;;;;;5093343;28;19912;-76
2023/02/09 12:18:44;;;;;;;;;;;3.10;99.90;;;;;;5098062;28;19931;-76
2023/02/09 12:21:10;;;;;;;;;;;3.30;99.90;;;;;;5090616;28;19920;-76
2023/02/09 12:23:41;;;;;;;;;;;3.40;99.90;;;;;;5092707;28;19924;-76
2023/02/09 12:26:10;;;;;;;;;;;3.50;99.90;;;;;;5080724;28;19913;-76
2023/02/09 12:28:41;;;;;;;;;;;3.40;99.90;;;;;;5084350;28;19909;-75
2023/02/09 12:31:07;;;;;;;;;;;3.50;99.90;;;;;;5083963;28;19939;-75
2023/02/09 12:33:34;;;;;;;;;;;3.50;99.90;;;;;;5080560;28;20380;-75
2023/02/09 12:36:07;;;;;;;;;;;3.50;99.90;;;;;;5091274;28;19913;-76
2023/02/09 12:38:51;;;;;;;;;;;3.60;99.90;;;;;;5082185;28;19913;-76
2023/02/09 12:41:28;;;;;;;;;;;3.60;99.90;;;;;;5085991;28;19913;-75
2023/02/09 12:44:23;;;;;;;;;;;3.60;99.90;;;;;;5085656;28;19927;-76
2023/02/09 12:46:53;;;;;;;;;;;3.50;99.90;;;;;;5089614;28;19917;-75
2023/02/09 12:49:30;;;;;;;;;;;3.50;99.90;;;;;;5080295;28;19912;-76
2023/02/09 12:51:59;;;;;;;;;;;3.60;99.90;;;;;;5086179;28;19913;-76
2023/02/09 12:54:44;;;;;;;;;;;3.70;99.90;;;;;;5086041;28;19912;-76
2023/02/09 12:57:17;;;;;;;;;;;3.70;99.90;;;;;;5083615;28;19913;-76
2023/02/09 12:59:52;;;;;;;;;;;3.70;99.90;;;;;;5083776;28;19912;-76
2023/02/09 13:02:22;;;;;;;;;;;3.80;99.90;;;;;;5075984;28;19925;-76
2023/02/09 13:04:52;;;;;;;;;;;3.90;99.90;;;;;;5085560;28;19920;-76
2023/02/09 13:07:28;;;;;;;;;;;3.90;99.90;;;;;;5088340;28;19918;-76
2023/02/09 13:09:54;;;;;;;;;;;3.70;99.90;;;;;;5079797;28;19916;-74
2023/02/09 13:12:28;;;;;;;;;;;3.80;99.90;;;;;;5079485;28;20282;-76
2023/02/09 13:14:54;;;;;;;;;;;3.90;99.90;;;;;;5083699;28;19916;-75
2023/02/09 13:17:23;;;;;;;;;;;3.80;99.90;;;;;;5088201;28;19983;-75
2023/02/09 13:20:06;;;;;;;;;;;3.90;99.90;;;;;;5087116;28;20371;-75
2023/02/09 13:22:41;;;;;;;;;;;3.90;99.90;;;;;;5089081;28;19920;-76
2023/02/09 13:25:36;;;;;;;;;;;3.90;99.90;;;;;;5082641;28;19920;-76
2023/02/09 13:28:07;;;;;;;;;;;3.70;99.90;;;;;;5074149;28;19923;-76
2023/02/09 13:30:33;;;;;;;;;;;3.80;99.90;;;;;;5084211;28;19963;-76
2023/02/09 13:33:03;;;;;;;;;;;3.90;99.90;;;;;;5083570;28;20471;-75
2023/02/09 13:35:31;;;;;;;;;;;3.90;99.90;;;;;;5084405;28;19920;-75
2023/02/09 13:37:58;;;;;;;;;;;4.00;99.90;;;;;;5089086;28;19935;-75
2023/02/09 13:40:24;;;;;;;;;;;4.00;99.90;;;;;;5086727;28;20265;-76
2023/02/09 13:42:53;;;;;;;;;;;4.00;99.90;;;;;;5085357;28;19912;-75
2023/02/09 13:45:22;;;;;;;;;;;3.90;99.90;;;;;;5082839;28;19928;-75
2023/02/09 13:47:48;;;;;;;;;;;4.00;99.90;;;;;;5078151;28;20358;-75
2023/02/09 13:50:21;;;;;;;;;;;4.10;99.90;;;;;;5081811;28;19912;-75
2023/02/09 13:52:49;;;;;;;;;;;4.10;99.90;;;;;;5081666;28;19912;-75
2023/02/09 13:55:25;;;;;;;;;;;4.10;99.90;;;;;;5092947;28;20293;-75
2023/02/09 13:57:51;;;;;;;;;;;4.10;99.90;;;;;;5102083;27;19928;-76
2023/02/09 14:00:21;;;;;;;;;;;4.20;99.90;;;;;;5082936;28;22962;-76
2023/02/09 14:02:50;;;;;;;;;;;4.10;99.90;;;;;;5082762;28;19928;-76
2023/02/09 14:05:23;;;;;;;;;;;4.20;99.90;;;;;;5084142;28;19927;-76
2023/02/09 14:07:49;;;;;;;;;;;4.20;99.90;;;;;;5081759;28;19942;-76
2023/02/09 14:10:16;;;;;;;;;;;4.30;99.90;;;;;;5078657;28;20413;-79
2023/02/09 14:12:58;;;;;;;;;;;4.20;99.90;;;;;;5086995;28;19913;-76
2023/02/09 14:18:20;;;;;;;;;;;4.30;99.90;;;;;;5083964;28;19916;-76
2023/02/09 14:20:59;;;;;;;;;;;4.30;99.90;;;;;;5079788;28;19935;-76
2023/02/09 14:23:31;;;;;;;;;;;4.40;99.90;;;;;;5083010;28;19913;-75
2023/02/09 14:26:02;;;;;;;;;;;4.40;99.90;;;;;;5090755;28;19912;-76
2023/02/09 14:28:28;;;;;;;;;;;4.40;99.90;;;;;;5081390;28;20370;-76
2023/02/09 14:30:54;;;;;;;;;;;4.40;99.90;;;;;;5082305;28;19920;-75
2023/02/09 14:33:23;;;;;;;;;;;4.70;99.90;;;;;;5082101;28;19920;-76
2023/02/09 14:35:58;;;;;;;;;;;4.80;99.90;;;;;;5088279;28;19912;-76
2023/02/09 14:38:34;;;;;;;;;;;4.80;99.90;;;;;;5081836;28;19913;-77
2023/02/09 14:41:21;;;;;;;;;;;4.60;99.90;;;;;;5080562;28;19913;-76
2023/02/09 14:43:59;;;;;;;;;;;4.40;99.90;;;;;;5070924;28;20475;-76
2023/02/09 14:46:25;;;;;;;;;;;4.60;99.90;;;;;;5074174;28;19913;-76
2023/02/09 14:48:55;;;;;;;;;;;4.50;99.90;;;;;;5089332;28;19919;-73
2023/02/09 14:51:21;;;;;;;;;;;4.40;99.90;;;;;;5091271;28;19916;-73
2023/02/09 14:53:47;;;;;;;;;;;4.50;99.90;;;;;;5082668;28;19916;-72